Cape Romanzof LRRS Airport Cape Romanzof US
ICAO: PACZ
IATA:
Category: Medium
Scheduled Services:

Elevation: 464 ft
TransAlt. 18000 ft.

Airport Communications:
ANCHORAGE ARTCC:124.5
ANCHORAGE CNTR:132.5
KENAI RDO:122.1
INFO:126.2

PACZ Zoom In..

If you have problems with the map follow the link
https://www.worldairports.se/pages/airport.php?
ICAO=PACZ

Runways:

(A) RW 02 length 3925 ft width 161 ft
---- / hdg 16

(B) RW 20 length 3925 ft width 161 ft
---- / hdg 196

Location; PACZ
Day. 18 / Time. 01.55 Zulu
* Altimeter: 29.55
* Temperature: -04° c. -24.8°f.
* Wind from: 320° Speed 13 kn.
Dewpoint: -05° c.
Visibility: 10 Statute Miles.
Clouds: Broken 800 ft.

PACZ 180155Z AUTO 32013KT 10SM BKN008 M04/M05 A2955 RMK AO2 SLP016 T10401050 $


Wind From 320°
Speed 13 kn.

 
 
jpsmedia.com for Web Design worldairports.se 2019   terms of use